sensor_id;sensor_type;location;lat;lon;timestamp;pressure;altitude;pressure_sealevel;temperature;humidity
16481;BME280;44634;54.110;12.138;2022-12-20T00:01:50;101686.75;;;7.25;100.00
16481;BME280;44634;54.110;12.138;2022-12-20T00:04:18;101685.78;;;7.69;100.00
16481;BME280;44634;54.110;12.138;2022-12-20T00:06:46;101680.22;;;7.88;100.00
16481;BME280;44634;54.110;12.138;2022-12-20T00:09:15;101656.34;;;7.76;100.00
16481;BME280;44634;54.110;12.138;2022-12-20T00:11:43;101649.03;;;7.67;100.00
16481;BME280;44634;54.110;12.138;2022-12-20T00:14:11;101640.31;;;8.21;100.00
16481;BME280;44634;54.110;12.138;2022-12-20T00:16:38;101619.16;;;7.95;100.00
16481;BME280;44634;54.110;12.138;2022-12-20T00:19:06;101595.94;;;7.61;100.00
16481;BME280;44634;54.110;12.138;2022-12-20T00:21:34;101615.50;;;7.57;100.00
16481;BME280;44634;54.110;12.138;2022-12-20T00:24:02;101633.41;;;7.64;100.00
16481;BME280;44634;54.110;12.138;2022-12-20T00:26:33;101630.56;;;7.26;100.00
16481;BME280;44634;54.110;12.138;2022-12-20T00:29:02;101631.22;;;7.30;100.00
16481;BME280;44634;54.110;12.138;2022-12-20T00:31:30;101624.56;;;7.38;100.00
16481;BME280;44634;54.110;12.138;2022-12-20T00:33:59;101647.28;;;7.11;100.00
16481;BME280;44634;54.110;12.138;2022-12-20T00:36:29;101645.84;;;7.62;100.00
16481;BME280;44634;54.110;12.138;2022-12-20T00:38:58;101638.53;;;7.53;100.00
16481;BME280;44634;54.110;12.138;2022-12-20T00:41:28;101617.66;;;7.36;100.00
16481;BME280;44634;54.110;12.138;2022-12-20T00:43:57;101605.75;;;7.30;100.00
16481;BME280;44634;54.110;12.138;2022-12-20T00:46:26;101622.16;;;7.48;100.00
16481;BME280;44634;54.110;12.138;2022-12-20T00:48:55;101616.25;;;7.59;100.00
16481;BME280;44634;54.110;12.138;2022-12-20T00:51:25;101607.72;;;7.27;100.00
16481;BME280;44634;54.110;12.138;2022-12-20T00:53:53;101628.13;;;7.09;100.00
16481;BME280;44634;54.110;12.138;2022-12-20T00:56:21;101651.84;;;7.07;100.00
16481;BME280;44634;54.110;12.138;2022-12-20T00:58:51;101674.69;;;7.07;100.00
16481;BME280;44634;54.110;12.138;2022-12-20T01:01:22;101692.38;;;7.47;100.00
16481;BME280;44634;54.110;12.138;2022-12-20T01:03:52;101676.97;;;7.27;100.00
16481;BME280;44634;54.110;12.138;2022-12-20T01:06:22;101672.91;;;7.64;100.00
16481;BME280;44634;54.110;12.138;2022-12-20T01:08:50;101635.06;;;7.38;100.00
16481;BME280;44634;54.110;12.138;2022-12-20T01:11:20;101626.53;;;8.17;100.00
16481;BME280;44634;54.110;12.138;2022-12-20T01:13:50;101600.91;;;8.19;100.00
16481;BME280;44634;54.110;12.138;2022-12-20T01:16:22;101573.31;;;8.64;100.00
16481;BME280;44634;54.110;12.138;2022-12-20T01:18:51;101553.03;;;8.52;100.00
16481;BME280;44634;54.110;12.138;2022-12-20T01:21:20;101529.31;;;8.52;100.00
16481;BME280;44634;54.110;12.138;2022-12-20T01:23:49;101523.22;;;8.64;100.00
16481;BME280;44634;54.110;12.138;2022-12-20T01:26:19;101499.06;;;7.93;100.00
16481;BME280;44634;54.110;12.138;2022-12-20T01:28:50;101509.13;;;7.73;100.00
16481;BME280;44634;54.110;12.138;2022-12-20T01:31:19;101541.97;;;7.68;100.00
16481;BME280;44634;54.110;12.138;2022-12-20T01:33:50;101566.84;;;7.35;100.00
16481;BME280;44634;54.110;12.138;2022-12-20T01:36:20;101600.81;;;7.67;100.00
16481;BME280;44634;54.110;12.138;2022-12-20T01:38:54;101589.31;;;7.41;100.00
16481;BME280;44634;54.110;12.138;2022-12-20T01:41:22;101610.56;;;7.65;100.00
16481;BME280;44634;54.110;12.138;2022-12-20T01:43:52;101593.16;;;7.35;100.00
16481;BME280;44634;54.110;12.138;2022-12-20T01:46:22;101589.72;;;7.62;100.00
16481;BME280;44634;54.110;12.138;2022-12-20T01:48:55;101585.72;;;7.56;100.00
16481;BME280;44634;54.110;12.138;2022-12-20T01:51:27;101562.38;;;7.09;100.00
16481;BME280;44634;54.110;12.138;2022-12-20T01:53:58;101578.50;;;7.17;100.00
16481;BME280;44634;54.110;12.138;2022-12-20T01:56:28;101556.69;;;7.43;100.00
16481;BME280;44634;54.110;12.138;2022-12-20T01:58:56;101542.19;;;7.51;100.00
16481;BME280;44634;54.110;12.138;2022-12-20T02:01:24;101526.03;;;7.84;100.00
16481;BME280;44634;54.110;12.138;2022-12-20T02:03:54;101514.28;;;7.48;100.00
16481;BME280;44634;54.110;12.138;2022-12-20T02:06:24;101525.88;;;7.72;100.00
16481;BME280;44634;54.110;12.138;2022-12-20T02:08:56;101496.44;;;7.53;100.00
16481;BME280;44634;54.110;12.138;2022-12-20T02:11:45;101504.34;;;7.12;100.00
16481;BME280;44634;54.110;12.138;2022-12-20T02:14:29;101510.44;;;7.54;100.00
16481;BME280;44634;54.110;12.138;2022-12-20T02:17:06;101502.19;;;7.72;100.00
16481;BME280;44634;54.110;12.138;2022-12-20T02:20:04;101508.44;;;7.30;100.00
16481;BME280;44634;54.110;12.138;2022-12-20T02:22:48;101502.56;;;7.66;100.00
16481;BME280;44634;54.110;12.138;2022-12-20T02:28:22;101492.84;;;7.94;100.00
16481;BME280;44634;54.110;12.138;2022-12-20T02:30:55;101457.38;;;7.87;100.00
16481;BME280;44634;54.110;12.138;2022-12-20T02:33:26;101441.59;;;8.12;100.00
16481;BME280;44634;54.110;12.138;2022-12-20T02:35:54;101441.00;;;7.69;100.00
16481;BME280;44634;54.110;12.138;2022-12-20T02:38:26;101454.56;;;7.63;100.00
16481;BME280;44634;54.110;12.138;2022-12-20T02:40:58;101469.69;;;7.86;100.00
16481;BME280;44634;54.110;12.138;2022-12-20T02:43:29;101451.47;;;8.09;100.00
16481;BME280;44634;54.110;12.138;2022-12-20T02:46:26;101441.25;;;7.52;100.00
16481;BME280;44634;54.110;12.138;2022-12-20T02:48:55;101453.66;;;7.76;100.00
16481;BME280;44634;54.110;12.138;2022-12-20T02:51:27;101461.91;;;7.97;100.00
16481;BME280;44634;54.110;12.138;2022-12-20T02:53:57;101434.66;;;7.59;100.00
16481;BME280;44634;54.110;12.138;2022-12-20T02:56:29;101446.13;;;7.97;100.00
16481;BME280;44634;54.110;12.138;2022-12-20T02:59:02;101434.06;;;7.68;100.00
16481;BME280;44634;54.110;12.138;2022-12-20T03:01:35;101413.78;;;7.83;100.00
16481;BME280;44634;54.110;12.138;2022-12-20T03:04:05;101412.06;;;7.69;100.00
16481;BME280;44634;54.110;12.138;2022-12-20T03:06:34;101437.16;;;8.00;100.00
16481;BME280;44634;54.110;12.138;2022-12-20T03:09:02;101408.56;;;7.56;100.00
16481;BME280;44634;54.110;12.138;2022-12-20T03:11:30;101397.38;;;8.43;100.00
16481;BME280;44634;54.110;12.138;2022-12-20T03:13:58;101384.53;;;7.47;100.00
16481;BME280;44634;54.110;12.138;2022-12-20T03:16:25;101413.94;;;7.80;100.00
16481;BME280;44634;54.110;12.138;2022-12-20T03:18:54;101405.75;;;7.71;100.00
16481;BME280;44634;54.110;12.138;2022-12-20T03:21:22;101447.50;;;7.24;100.00
16481;BME280;44634;54.110;12.138;2022-12-20T03:23:50;101455.56;;;7.87;100.00
16481;BME280;44634;54.110;12.138;2022-12-20T03:26:18;101466.03;;;7.35;100.00
16481;BME280;44634;54.110;12.138;2022-12-20T03:28:45;101482.81;;;7.46;100.00
16481;BME280;44634;54.110;12.138;2022-12-20T03:31:13;101488.78;;;7.63;100.00
16481;BME280;44634;54.110;12.138;2022-12-20T03:33:41;101506.47;;;7.20;100.00
16481;BME280;44634;54.110;12.138;2022-12-20T03:36:10;101533.44;;;7.50;100.00
16481;BME280;44634;54.110;12.138;2022-12-20T03:38:38;101518.63;;;7.76;100.00
16481;BME280;44634;54.110;12.138;2022-12-20T03:41:06;101503.81;;;7.88;100.00
16481;BME280;44634;54.110;12.138;2022-12-20T03:43:33;101465.19;;;8.01;100.00
16481;BME280;44634;54.110;12.138;2022-12-20T03:46:01;101462.94;;;7.82;100.00
16481;BME280;44634;54.110;12.138;2022-12-20T03:48:29;101450.50;;;7.71;100.00
16481;BME280;44634;54.110;12.138;2022-12-20T03:50:57;101423.84;;;8.41;100.00
16481;BME280;44634;54.110;12.138;2022-12-20T03:53:26;101440.09;;;7.95;100.00
16481;BME280;44634;54.110;12.138;2022-12-20T03:55:53;101459.50;;;7.55;100.00
16481;BME280;44634;54.110;12.138;2022-12-20T03:58:21;101437.66;;;7.92;100.00
16481;BME280;44634;54.110;12.138;2022-12-20T04:00:49;101431.78;;;7.89;100.00
16481;BME280;44634;54.110;12.138;2022-12-20T04:03:17;101442.66;;;8.22;100.00
16481;BME280;44634;54.110;12.138;2022-12-20T04:05:45;101410.31;;;8.20;100.00
16481;BME280;44634;54.110;12.138;2022-12-20T04:08:13;101389.22;;;7.95;100.00
16481;BME280;44634;54.110;12.138;2022-12-20T04:10:42;101378.28;;;8.26;100.00
16481;BME280;44634;54.110;12.138;2022-12-20T04:13:23;101371.44;;;7.98;100.00
16481;BME280;44634;54.110;12.138;2022-12-20T04:15:51;101367.72;;;8.52;100.00
16481;BME280;44634;54.110;12.138;2022-12-20T04:18:25;101353.19;;;8.33;100.00
16481;BME280;44634;54.110;12.138;2022-12-20T04:20:53;101334.69;;;7.97;100.00
16481;BME280;44634;54.110;12.138;2022-12-20T04:23:21;101367.94;;;8.36;100.00
16481;BME280;44634;54.110;12.138;2022-12-20T04:25:50;101339.00;;;8.73;100.00
16481;BME280;44634;54.110;12.138;2022-12-20T04:28:18;101323.75;;;8.52;100.00
16481;BME280;44634;54.110;12.138;2022-12-20T04:30:45;101333.25;;;8.55;100.00
16481;BME280;44634;54.110;12.138;2022-12-20T04:33:13;101336.88;;;8.41;100.00
16481;BME280;44634;54.110;12.138;2022-12-20T04:35:41;101340.00;;;8.46;100.00
16481;BME280;44634;54.110;12.138;2022-12-20T04:38:09;101329.59;;;8.06;100.00
16481;BME280;44634;54.110;12.138;2022-12-20T04:40:36;101349.81;;;8.19;100.00
16481;BME280;44634;54.110;12.138;2022-12-20T04:43:06;101363.00;;;8.19;100.00
16481;BME280;44634;54.110;12.138;2022-12-20T04:45:33;101351.31;;;8.35;100.00
16481;BME280;44634;54.110;12.138;2022-12-20T04:48:01;101336.66;;;8.06;100.00
16481;BME280;44634;54.110;12.138;2022-12-20T04:50:51;101354.25;;;8.05;100.00
16481;BME280;44634;54.110;12.138;2022-12-20T04:53:19;101372.81;;;8.04;100.00
16481;BME280;44634;54.110;12.138;2022-12-20T04:56:05;101378.91;;;8.04;100.00
16481;BME280;44634;54.110;12.138;2022-12-20T04:58:34;101391.34;;;8.28;100.00
16481;BME280;44634;54.110;12.138;2022-12-20T05:01:02;101404.72;;;7.99;100.00
16481;BME280;44634;54.110;12.138;2022-12-20T05:03:29;101418.56;;;8.41;100.00
16481;BME280;44634;54.110;12.138;2022-12-20T05:05:57;101393.13;;;8.53;100.00
16481;BME280;44634;54.110;12.138;2022-12-20T05:08:25;101380.16;;;8.24;100.00
16481;BME280;44634;54.110;12.138;2022-12-20T05:10:53;101382.50;;;8.03;100.00
16481;BME280;44634;54.110;12.138;2022-12-20T05:13:20;101371.09;;;8.54;100.00
16481;BME280;44634;54.110;12.138;2022-12-20T05:15:51;101342.34;;;8.75;100.00
16481;BME280;44634;54.110;12.138;2022-12-20T05:18:20;101324.94;;;8.48;100.00
16481;BME280;44634;54.110;12.138;2022-12-20T05:20:48;101322.75;;;8.66;100.00
16481;BME280;44634;54.110;12.138;2022-12-20T05:23:37;101306.47;;;9.20;100.00
16481;BME280;44634;54.110;12.138;2022-12-20T05:26:22;101277.84;;;8.68;100.00
16481;BME280;44634;54.110;12.138;2022-12-20T05:28:51;101284.25;;;9.00;100.00
16481;BME280;44634;54.110;12.138;2022-12-20T05:31:20;101289.06;;;8.82;100.00
16481;BME280;44634;54.110;12.138;2022-12-20T05:33:48;101284.06;;;9.14;100.00
16481;BME280;44634;54.110;12.138;2022-12-20T05:36:16;101249.88;;;9.13;100.00
16481;BME280;44634;54.110;12.138;2022-12-20T05:38:44;101231.16;;;9.16;100.00
16481;BME280;44634;54.110;12.138;2022-12-20T05:41:11;101273.06;;;8.49;100.00
16481;BME280;44634;54.110;12.138;2022-12-20T05:43:39;101280.97;;;8.97;100.00
16481;BME280;44634;54.110;12.138;2022-12-20T05:46:07;101303.13;;;8.46;100.00
16481;BME280;44634;54.110;12.138;2022-12-20T05:48:36;101330.34;;;8.71;100.00
16481;BME280;44634;54.110;12.138;2022-12-20T05:51:04;101343.94;;;8.77;100.00
16481;BME280;44634;54.110;12.138;2022-12-20T05:53:32;101347.81;;;8.84;100.00
16481;BME280;44634;54.110;12.138;2022-12-20T05:56:00;101333.16;;;8.56;100.00
16481;BME280;44634;54.110;12.138;2022-12-20T05:58:28;101338.19;;;8.59;100.00
16481;BME280;44634;54.110;12.138;2022-12-20T06:00:56;101346.06;;;8.72;100.00
16481;BME280;44634;54.110;12.138;2022-12-20T06:03:23;101315.66;;;8.79;100.00
16481;BME280;44634;54.110;12.138;2022-12-20T06:05:53;101305.97;;;8.43;100.00
16481;BME280;44634;54.110;12.138;2022-12-20T06:08:21;101343.28;;;8.86;100.00
16481;BME280;44634;54.110;12.138;2022-12-20T06:10:50;101336.13;;;9.23;100.00
16481;BME280;44634;54.110;12.138;2022-12-20T06:13:18;101298.59;;;8.72;100.00
16481;BME280;44634;54.110;12.138;2022-12-20T06:15:46;101275.97;;;9.05;100.00
16481;BME280;44634;54.110;12.138;2022-12-20T06:18:14;101236.25;;;9.30;100.00
16481;BME280;44634;54.110;12.138;2022-12-20T06:20:42;101224.72;;;9.31;100.00
16481;BME280;44634;54.110;12.138;2022-12-20T06:23:11;101228.13;;;9.09;100.00
16481;BME280;44634;54.110;12.138;2022-12-20T06:25:39;101224.75;;;9.53;100.00
16481;BME280;44634;54.110;12.138;2022-12-20T06:28:06;101219.22;;;9.45;100.00
16481;BME280;44634;54.110;12.138;2022-12-20T06:30:34;101238.22;;;9.04;100.00
16481;BME280;44634;54.110;12.138;2022-12-20T06:33:02;101255.00;;;9.03;100.00
16481;BME280;44634;54.110;12.138;2022-12-20T06:35:30;101234.97;;;9.69;100.00
16481;BME280;44634;54.110;12.138;2022-12-20T06:37:58;101223.38;;;8.79;100.00
16481;BME280;44634;54.110;12.138;2022-12-20T06:40:27;101240.91;;;8.91;100.00
16481;BME280;44634;54.110;12.138;2022-12-20T06:42:55;101245.81;;;8.61;100.00
16481;BME280;44634;54.110;12.138;2022-12-20T06:45:22;101250.53;;;8.69;100.00
16481;BME280;44634;54.110;12.138;2022-12-20T06:47:50;101280.75;;;8.52;100.00
16481;BME280;44634;54.110;12.138;2022-12-20T06:50:18;101278.75;;;8.79;100.00
16481;BME280;44634;54.110;12.138;2022-12-20T06:52:46;101269.81;;;9.28;100.00
16481;BME280;44634;54.110;12.138;2022-12-20T06:55:13;101251.59;;;9.36;100.00
16481;BME280;44634;54.110;12.138;2022-12-20T06:57:42;101230.84;;;8.97;100.00
16481;BME280;44634;54.110;12.138;2022-12-20T07:00:11;101235.91;;;9.46;100.00
16481;BME280;44634;54.110;12.138;2022-12-20T07:02:39;101219.94;;;9.36;100.00
16481;BME280;44634;54.110;12.138;2022-12-20T07:05:07;101239.44;;;9.11;100.00
16481;BME280;44634;54.110;12.138;2022-12-20T07:07:35;101268.47;;;9.22;100.00
16481;BME280;44634;54.110;12.138;2022-12-20T07:10:10;101268.50;;;9.34;100.00
16481;BME280;44634;54.110;12.138;2022-12-20T07:12:38;101277.91;;;8.79;100.00
16481;BME280;44634;54.110;12.138;2022-12-20T07:15:15;101318.66;;;9.10;100.00
16481;BME280;44634;54.110;12.138;2022-12-20T07:17:43;101327.78;;;9.06;100.00
16481;BME280;44634;54.110;12.138;2022-12-20T07:20:11;101320.91;;;9.27;100.00
16481;BME280;44634;54.110;12.138;2022-12-20T07:22:58;101334.63;;;9.08;100.00
16481;BME280;44634;54.110;12.138;2022-12-20T07:25:26;101349.97;;;8.67;100.00
16481;BME280;44634;54.110;12.138;2022-12-20T07:27:54;101355.09;;;9.29;100.00
16481;BME280;44634;54.110;12.138;2022-12-20T07:30:23;101361.38;;;8.91;100.00
16481;BME280;44634;54.110;12.138;2022-12-20T07:32:51;101370.69;;;9.08;100.00
16481;BME280;44634;54.110;12.138;2022-12-20T07:35:19;101359.78;;;9.01;100.00
16481;BME280;44634;54.110;12.138;2022-12-20T07:37:48;101382.78;;;8.24;100.00
16481;BME280;44634;54.110;12.138;2022-12-20T07:40:16;101425.00;;;8.86;100.00
16481;BME280;44634;54.110;12.138;2022-12-20T07:42:44;101413.69;;;8.60;100.00
16481;BME280;44634;54.110;12.138;2022-12-20T07:45:14;101420.84;;;8.58;100.00
16481;BME280;44634;54.110;12.138;2022-12-20T07:47:44;101430.56;;;8.94;100.00
16481;BME280;44634;54.110;12.138;2022-12-20T07:50:11;101442.75;;;8.72;100.00
16481;BME280;44634;54.110;12.138;2022-12-20T07:52:41;101473.63;;;8.31;100.00
16481;BME280;44634;54.110;12.138;2022-12-20T07:55:12;101469.75;;;8.62;100.00
16481;BME280;44634;54.110;12.138;2022-12-20T07:57:43;101487.03;;;8.79;100.00
16481;BME280;44634;54.110;12.138;2022-12-20T08:00:14;101519.97;;;8.61;100.00
16481;BME280;44634;54.110;12.138;2022-12-20T08:02:49;101513.31;;;8.55;100.00
16481;BME280;44634;54.110;12.138;2022-12-20T08:05:20;101506.88;;;8.85;100.00
16481;BME280;44634;54.110;12.138;2022-12-20T08:07:47;101497.19;;;8.60;100.00
16481;BME280;44634;54.110;12.138;2022-12-20T08:10:24;101502.72;;;8.93;100.00
16481;BME280;44634;54.110;12.138;2022-12-20T08:12:52;101503.69;;;8.67;100.00
16481;BME280;44634;54.110;12.138;2022-12-20T08:15:19;101519.75;;;8.77;100.00
16481;BME280;44634;54.110;12.138;2022-12-20T08:17:49;101535.66;;;8.50;100.00
16481;BME280;44634;54.110;12.138;2022-12-20T08:20:17;101548.22;;;8.72;100.00
16481;BME280;44634;54.110;12.138;2022-12-20T08:22:45;101532.38;;;8.46;100.00
16481;BME280;44634;54.110;12.138;2022-12-20T08:25:13;101544.63;;;8.85;100.00
16481;BME280;44634;54.110;12.138;2022-12-20T08:27:41;101583.13;;;8.62;100.00
16481;BME280;44634;54.110;12.138;2022-12-20T08:30:09;101580.16;;;8.80;100.00
16481;BME280;44634;54.110;12.138;2022-12-20T08:32:38;101557.50;;;8.90;100.00
16481;BME280;44634;54.110;12.138;2022-12-20T08:35:07;101565.84;;;8.71;100.00
16481;BME280;44634;54.110;12.138;2022-12-20T08:37:35;101572.06;;;8.57;100.00
16481;BME280;44634;54.110;12.138;2022-12-20T08:40:03;101597.56;;;8.57;100.00
16481;BME280;44634;54.110;12.138;2022-12-20T08:42:33;101600.63;;;8.76;100.00
16481;BME280;44634;54.110;12.138;2022-12-20T08:45:00;101593.25;;;8.94;100.00
16481;BME280;44634;54.110;12.138;2022-12-20T08:47:28;101582.56;;;9.08;100.00
16481;BME280;44634;54.110;12.138;2022-12-20T08:49:56;101589.34;;;9.00;100.00
16481;BME280;44634;54.110;12.138;2022-12-20T08:52:27;101580.69;;;9.10;100.00
16481;BME280;44634;54.110;12.138;2022-12-20T08:54:55;101587.97;;;8.94;100.00
16481;BME280;44634;54.110;12.138;2022-12-20T08:57:24;101594.81;;;9.09;100.00
16481;BME280;44634;54.110;12.138;2022-12-20T08:59:51;101602.31;;;9.28;100.00
16481;BME280;44634;54.110;12.138;2022-12-20T09:02:19;101601.41;;;9.53;100.00
16481;BME280;44634;54.110;12.138;2022-12-20T09:04:47;101574.06;;;8.92;100.00
16481;BME280;44634;54.110;12.138;2022-12-20T09:07:15;101594.31;;;9.17;100.00
16481;BME280;44634;54.110;12.138;2022-12-20T09:09:45;101615.19;;;9.20;100.00
16481;BME280;44634;54.110;12.138;2022-12-20T09:12:13;101600.06;;;9.35;100.00
16481;BME280;44634;54.110;12.138;2022-12-20T09:14:40;101617.94;;;8.93;100.00
16481;BME280;44634;54.110;12.138;2022-12-20T09:17:08;101652.66;;;9.00;100.00
16481;BME280;44634;54.110;12.138;2022-12-20T09:19:36;101684.59;;;8.95;100.00
16481;BME280;44634;54.110;12.138;2022-12-20T09:22:03;101686.47;;;8.80;100.00
16481;BME280;44634;54.110;12.138;2022-12-20T09:24:31;101713.41;;;8.85;100.00
16481;BME280;44634;54.110;12.138;2022-12-20T09:27:00;101729.38;;;9.09;100.00
16481;BME280;44634;54.110;12.138;2022-12-20T09:29:28;101717.59;;;9.40;100.00
16481;BME280;44634;54.110;12.138;2022-12-20T09:32:01;101686.94;;;9.25;100.00
16481;BME280;44634;54.110;12.138;2022-12-20T09:34:29;101683.56;;;9.10;100.00
16481;BME280;44634;54.110;12.138;2022-12-20T09:36:56;101665.94;;;9.49;100.00
16481;BME280;44634;54.110;12.138;2022-12-20T09:39:24;101672.19;;;8.97;100.00
16481;BME280;44634;54.110;12.138;2022-12-20T09:41:52;101658.88;;;9.37;100.00
16481;BME280;44634;54.110;12.138;2022-12-20T09:44:25;101647.66;;;9.59;100.00
16481;BME280;44634;54.110;12.138;2022-12-20T09:46:56;101624.66;;;9.84;100.00
16481;BME280;44634;54.110;12.138;2022-12-20T09:49:35;101624.16;;;9.30;100.00
16481;BME280;44634;54.110;12.138;2022-12-20T09:52:17;101641.22;;;9.37;100.00
16481;BME280;44634;54.110;12.138;2022-12-20T09:54:55;101649.38;;;9.21;100.00
16481;BME280;44634;54.110;12.138;2022-12-20T09:57:45;101644.66;;;9.01;100.00
16481;BME280;44634;54.110;12.138;2022-12-20T10:00:18;101644.66;;;9.27;100.00
16481;BME280;44634;54.110;12.138;2022-12-20T10:02:46;101624.38;;;9.02;100.00
16481;BME280;44634;54.110;12.138;2022-12-20T10:05:40;101635.22;;;9.22;100.00
16481;BME280;44634;54.110;12.138;2022-12-20T10:08:16;101617.19;;;9.29;100.00
16481;BME280;44634;54.110;12.138;2022-12-20T10:10:54;101601.22;;;9.56;100.00
16481;BME280;44634;54.110;12.138;2022-12-20T10:13:33;101584.56;;;9.30;100.00
16481;BME280;44634;54.110;12.138;2022-12-20T10:16:16;101595.03;;;9.06;100.00
16481;BME280;44634;54.110;12.138;2022-12-20T10:18:56;101586.66;;;9.38;100.00
16481;BME280;44634;54.110;12.138;2022-12-20T10:21:33;101567.03;;;9.42;100.00
16481;BME280;44634;54.110;12.138;2022-12-20T10:24:09;101542.25;;;9.32;100.00
16481;BME280;44634;54.110;12.138;2022-12-20T10:26:39;101533.22;;;9.47;100.00
16481;BME280;44634;54.110;12.138;2022-12-20T10:29:07;101512.66;;;9.63;100.00
16481;BME280;44634;54.110;12.138;2022-12-20T10:31:37;101533.84;;;9.74;100.00
16481;BME280;44634;54.110;12.138;2022-12-20T10:34:05;101515.41;;;9.62;100.00
16481;BME280;44634;54.110;12.138;2022-12-20T10:36:35;101500.16;;;9.17;100.00
16481;BME280;44634;54.110;12.138;2022-12-20T10:39:05;101509.16;;;9.39;100.00
16481;BME280;44634;54.110;12.138;2022-12-20T10:41:47;101509.78;;;9.66;100.00
16481;BME280;44634;54.110;12.138;2022-12-20T10:44:19;101497.41;;;9.91;100.00
16481;BME280;44634;54.110;12.138;2022-12-20T10:46:52;101481.22;;;9.60;100.00
16481;BME280;44634;54.110;12.138;2022-12-20T10:49:26;101473.94;;;10.10;100.00
16481;BME280;44634;54.110;12.138;2022-12-20T10:51:57;101458.06;;;9.99;100.00
16481;BME280;44634;54.110;12.138;2022-12-20T10:54:32;101444.63;;;10.02;100.00
16481;BME280;44634;54.110;12.138;2022-12-20T10:57:02;101450.03;;;9.65;100.00
16481;BME280;44634;54.110;12.138;2022-12-20T10:59:33;101456.06;;;10.13;100.00
16481;BME280;44634;54.110;12.138;2022-12-20T11:02:23;101424.84;;;10.19;100.00
16481;BME280;44634;54.110;12.138;2022-12-20T11:05:02;101418.66;;;9.96;100.00
16481;BME280;44634;54.110;12.138;2022-12-20T11:07:32;101373.06;;;10.16;100.00
16481;BME280;44634;54.110;12.138;2022-12-20T11:10:17;101391.38;;;10.30;100.00
16481;BME280;44634;54.110;12.138;2022-12-20T11:12:51;101388.38;;;10.57;100.00
16481;BME280;44634;54.110;12.138;2022-12-20T11:15:23;101318.25;;;11.38;100.00
16481;BME280;44634;54.110;12.138;2022-12-20T11:18:05;101253.78;;;11.49;100.00
16481;BME280;44634;54.110;12.138;2022-12-20T11:20:37;101233.34;;;11.30;100.00
16481;BME280;44634;54.110;12.138;2022-12-20T11:23:17;101162.34;;;12.54;100.00
16481;BME280;44634;54.110;12.138;2022-12-20T11:25:58;101085.25;;;11.38;100.00
16481;BME280;44634;54.110;12.138;2022-12-20T11:28:39;101128.56;;;11.68;100.00
16481;BME280;44634;54.110;12.138;2022-12-20T11:31:15;101131.28;;;10.95;100.00
16481;BME280;44634;54.110;12.138;2022-12-20T11:34:00;101143.97;;;11.53;100.00
16481;BME280;44634;54.110;12.138;2022-12-20T11:36:40;101099.75;;;11.34;100.00
16481;BME280;44634;54.110;12.138;2022-12-20T11:39:16;101114.00;;;11.52;100.00
16481;BME280;44634;54.110;12.138;2022-12-20T11:41:49;101121.69;;;10.94;100.00
16481;BME280;44634;54.110;12.138;2022-12-20T11:44:27;101127.19;;;11.33;100.00
16481;BME280;44634;54.110;12.138;2022-12-20T11:47:12;101118.78;;;11.28;100.00
16481;BME280;44634;54.110;12.138;2022-12-20T11:50:02;101096.31;;;11.43;100.00
16481;BME280;44634;54.110;12.138;2022-12-20T11:52:40;101136.94;;;11.32;100.00
16481;BME280;44634;54.110;12.138;2022-12-20T11:55:17;101137.56;;;10.94;100.00
16481;BME280;44634;54.110;12.138;2022-12-20T11:57:53;101143.88;;;11.03;100.00
16481;BME280;44634;54.110;12.138;2022-12-20T12:00:46;101150.69;;;11.87;100.00
16481;BME280;44634;54.110;12.138;2022-12-20T12:03:22;101097.09;;;11.84;100.00
16481;BME280;44634;54.110;12.138;2022-12-20T12:05:56;101095.41;;;11.02;100.00
16481;BME280;44634;54.110;12.138;2022-12-20T12:08:33;101138.94;;;10.89;100.00
16481;BME280;44634;54.110;12.138;2022-12-20T12:11:11;101150.78;;;11.15;100.00
16481;BME280;44634;54.110;12.138;2022-12-20T12:14:02;101162.13;;;11.06;100.00
16481;BME280;44634;54.110;12.138;2022-12-20T12:16:34;101156.22;;;10.72;100.00
16481;BME280;44634;54.110;12.138;2022-12-20T12:19:08;101165.56;;;10.97;100.00
16481;BME280;44634;54.110;12.138;2022-12-20T12:21:43;101184.78;;;10.99;100.00
16481;BME280;44634;54.110;12.138;2022-12-20T12:24:18;101161.41;;;10.83;100.00
16481;BME280;44634;54.110;12.138;2022-12-20T12:26:48;101134.16;;;11.34;100.00
16481;BME280;44634;54.110;12.138;2022-12-20T12:29:17;101110.66;;;10.89;100.00
16481;BME280;44634;54.110;12.138;2022-12-20T12:31:49;101158.09;;;11.02;100.00
16481;BME280;44634;54.110;12.138;2022-12-20T12:34:29;101113.38;;;11.29;100.00
16481;BME280;44634;54.110;12.138;2022-12-20T12:37:27;101104.84;;;11.26;100.00
16481;BME280;44634;54.110;12.138;2022-12-20T12:40:11;101092.28;;;11.18;100.00
16481;BME280;44634;54.110;12.138;2022-12-20T12:43:04;101127.66;;;11.48;100.00
16481;BME280;44634;54.110;12.138;2022-12-20T12:45:37;101086.44;;;11.24;100.00
16481;BME280;44634;54.110;12.138;2022-12-20T12:48:13;101065.47;;;11.42;100.00
16481;BME280;44634;54.110;12.138;2022-12-20T12:50:45;101051.66;;;11.39;100.00
16481;BME280;44634;54.110;12.138;2022-12-20T12:53:17;101050.88;;;11.48;100.00
16481;BME280;44634;54.110;12.138;2022-12-20T12:55:48;101031.44;;;11.28;100.00
16481;BME280;44634;54.110;12.138;2022-12-20T12:58:37;101080.22;;;11.35;100.00
16481;BME280;44634;54.110;12.138;2022-12-20T13:01:46;101027.31;;;11.45;100.00
16481;BME280;44634;54.110;12.138;2022-12-20T13:04:24;101021.31;;;11.52;100.00